NCAR-RAP Real-Time Weather Data

Output produced by METARs form (23 February 2020  01:39 UTC)
found at http://weather.rap.ucar.edu/surface/
 
KMIA 230053Z 36004KT 10SM -RA SCT055 OVC070 20/14 A3019 RMK AO2 RAB2359E10B50 SLP222 P0000 T02000139
KMIA 222353Z 03009KT 10SM SCT043 BKN085 20/14 A3017 RMK AO2 RAB27E43 SLP217 P0002 60003 T02000144 10250 20200 53011
KMIA 222253Z 03008KT 10SM SCT041 SCT080 22/12 A3015 RMK AO2 SLP211 T02220122
KMIA 222153Z 05012G19KT 10SM FEW042 SCT050 BKN080 23/12 A3014 RMK AO2 SLP207 T02280117
KMIA 222053Z 03010G18KT 10SM SCT040 SCT050 BKN060 23/12 A3014 RMK AO2 RAB17E31 SLP207 P0001 60001 T02280122 55012
KMIA 221953Z 04017G24KT 10SM SCT043 BKN080 23/13 A3014 RMK AO2 PK WND 07027/1914 RAB04E13 SLP205 P0000 T02330128
KMIA 221853Z 04016G22KT 10SM SCT035 BKN045 BKN065 24/12 A3016 RMK AO2 PK WND 07027/1816 RAB19E31 SLP214 P0000 T02440122
KMIA 221753Z 05016G23KT 10SM FEW039 SCT046 BKN075 24/13 A3018 RMK AO2 SLP218 60000 T02390128 10250 20150 58007
KMIA 221653Z COR 06015G23KT 10SM SCT040 BKN047 BKN065 24/13 A3019 RMK AO2 RAB1557E08 SLP224 P0000 T02440128
KMIA 221553Z 05010G17KT 10SM FEW020 BKN055 BKN070 21/13 A3021 RMK AO2 SLP230 T02110133
KMIA 221453Z 35006KT 10SM FEW032 SCT045 SCT070 19/12 A3020 RMK AO2 RAB18E30 SLP226 P0000 60000 T01940122 51017
KMIA 221353Z 00000KT 10SM FEW020 BKN030 BKN070 17/12 A3019 RMK AO2 SLP224 T01670117
KMIA 221253Z 34008KT 10SM FEW015 BKN048 BKN070 16/12 A3017 RMK AO2 SLP217 T01560117
KMIA 221153Z 34007KT 7SM FEW020 BKN050 15/11 A3015 RMK AO2 SLP209 60000 T01500111 10156 20144 53015
KMIA 221053Z 34008KT 10SM SCT016 BKN030 BKN045 15/11 A3012 RMK AO2 SLP199 T01500106
KMIA 221033Z 34011KT 10SM SCT016 BKN030 BKN043 15/10 A3012 RMK AO2 T01500100
KMIA 220953Z 34010G21KT 10SM SCT016 BKN023 OVC040 15/10 A3010 RMK AO2 SLP193 T01500100
KMIA 220853Z 34010G17KT 10SM BKN016 OVC028 15/11 A3010 RMK AO2 RAB39E51 SLP193 P0000 60000 T01500106 55008
KMIA 220753Z 34012G17KT 10SM BKN018 OVC028 15/10 A3010 RMK AO2 SLP191 T01500100
KMIA 220653Z 33013G21KT 10SM BKN018 OVC028 15/10 A3011 RMK AO2 SLP196 T01500100
KMIA 220553Z 33013G20KT 10SM BKN018 OVC028 16/10 A3013 RMK AO2 SLP201 T01560100 10189 20150 58006
KMIA 220521Z 33013G24KT 10SM BKN018 OVC028 15/10 A3013 RMK AO2 T01500100
KMIA 220453Z 34012G25KT 10SM OVC014 15/11 A3014 RMK AO2 SLP205 T01500106 402720150
KMIA 220353Z 34015G22KT 10SM OVC014 16/11 A3015 RMK AO2 SLP209 T01610111
KMIA 220253Z 33012G21KT 10SM OVC014 16/11 A3014 RMK AO2 SLP207 T01610111 51019
KMIA 220235Z 33011G18KT 10SM OVC014 16/12 A3014 RMK AO2 T01610117
KMIA 220153Z 33013G21KT 10SM OVC016 17/12 A3013 RMK AO2 SLP203 T01670117
KMIA 220053Z 33011G20KT 300V010 10SM OVC018 18/12 A3011 RMK AO2 SLP196 T01780122
KMIA 212353Z 34014G21KT 10SM OVC018 19/13 A3009 RMK AO2 SLP188 T01890128 10244 20189 53014
KMIA 212253Z 34012G21KT 10SM OVC018 19/13 A3007 RMK AO2 SLP181 T01940133
KMIA 212153Z 33012G19KT 10SM OVC017 20/14 A3005 RMK AO2 SLP175 T02000139
KMIA 212053Z 35008G18KT 10SM OVC018 21/14 A3005 RMK AO2 SLP174 T02110144 55004
KMIA 211953Z 34011G17KT 10SM OVC015 22/15 A3004 RMK AO2 SLP172 T02170150
KMIA 211930Z 33014G18KT 10SM BKN014 OVC020 22/16 A3004 RMK AO2 T02170156
KMIA 211853Z 33009G16KT 10SM BKN018 23/16 A3004 RMK AO2 SLP171 T02330161
KMIA 211753Z 34012G18KT 10SM OVC018 23/16 A3006 RMK AO2 SLP178 T02330161 10272 20217 58004
KMIA 211723Z 34011G19KT 10SM BKN015 BKN040 BKN060 23/17 A3006 RMK AO2 T02280167
KMIA 211715Z 33011G16KT 10SM SCT013 OVC038 23/17 A3006 RMK AO2 T02280167
KMIA 211653Z 32012G20KT 10SM BKN011 OVC033 22/17 A3007 RMK AO2 SLP183 T02220172
KMIA 211648Z 32012G21KT 10SM BKN011 BKN030 OVC050 22/17 A3007 RMK AO2
KMIA 211647Z 32012G21KT 10SM SCT011 OVC032 22/17 A3007 RMK AO2
KMIA 211553Z COR 30013G22KT 270V330 10SM SCT022 BKN043 27/19 A3006 RMK AO2 SLP179 T02670189
KMIA 211453Z 28007KT 10SM SCT014 26/19 A3007 RMK AO2 SLP181 T02560194 51016
KMIA 211429Z 29007KT 10SM SCT012 SCT020 25/20 A3007 RMK AO2 T02500200
KMIA 211353Z 30006KT 10SM SCT008 BKN013 BKN020 24/19 A3007 RMK AO2 SLP181 T02390194
KMIA 211325Z VRB05KT 10SM SCT006 BKN013 BKN020 23/20 A3006 RMK AO2 T02280200
KMIA 211253Z 29007KT 10SM OVC005 22/19 A3005 RMK AO2 SLP175 T02220194 $
KMIA 211153Z VRB04KT 10SM BKN007 22/19 A3002 RMK AO2 SLP165 70001 T02170194 10239 20217 53003 $
KMIA 211053Z 31005KT 10SM BKN007 BKN011 22/19 A3001 RMK AO2 SLP162 T02220194 $
KMIA 211016Z 30006KT 10SM BKN007 BKN012 22/20 A3001 RMK AO2 T02220200 $
KMIA 210953Z 29006KT 10SM SCT006 BKN014 22/20 A3001 RMK AO2 SLP161 T02220200 $
KMIA 210946Z 30005KT 10SM SCT006 BKN014 22/20 A3001 RMK AO2 T02220200 $
KMIA 210914Z 30004KT 8SM BKN006 BKN012 23/21 A3001 RMK AO2 T02280206 $
KMIA 210853Z 29004KT 10SM SCT010 23/21 A3001 RMK AO2 SLP162 T02280206 56017 $
KMIA 210753Z 28005KT 10SM FEW010 23/20 A3002 RMK AO2 SLP166 T02280200
KMIA 210653Z 28004KT 10SM CLR 23/20 A3004 RMK AO2 SLP172 T02330200
KMIA 210553Z 27005KT 10SM FEW020 FEW037 SCT050 24/21 A3006 RMK AO2 SLP179 60001 T02390211 10256 20239 58005
KMIA 210453Z 26005KT 10SM FEW023 BKN041 BKN070 24/22 A3006 RMK AO2 RAB0355E04 SLP181 P0000 T02440217 403000233
KMIA 210422Z 25004KT 10SM FEW018 FEW025 FEW038 24/22 A3007 RMK AO2 RAB0355E04 P0000 T02440217
KMIA 210353Z 25006KT 10SM SCT017 BKN023 BKN060 25/22 A3007 RMK AO2 RAB21E30 SLP184 P0000 T02500217
KMIA 210350Z 25005KT 10SM SCT018 BKN023 BKN060 25/22 A3007 RMK AO2 RAB21E30 P0000
KMIA 210253Z 23004KT 10SM SCT024 BKN032 OVC060 25/22 A3007 RMK AO2 RAE06 SLP184 P0001 60001 T02500217 51015
KMIA 210153Z 29003KT 9SM -RA FEW021 BKN030 BKN048 25/22 A3006 RMK AO2 RAB52 SLP180 P0000 T02500222